sensor_id;sensor_type;location;lat;lon;timestamp;temperature;humidity
38938;DHT22;24727;51.974;20.868;2023-03-11T00:00:31;6.10;9.10
38938;DHT22;24727;51.974;20.868;2023-03-11T00:02:59;6.10;14.80
38938;DHT22;24727;51.974;20.868;2023-03-11T00:05:28;6.10;19.40
38938;DHT22;24727;51.974;20.868;2023-03-11T00:07:57;6.10;1.00
38938;DHT22;24727;51.974;20.868;2023-03-11T00:10:29;6.10;1.00
38938;DHT22;24727;51.974;20.868;2023-03-11T00:12:57;6.10;1.00
38938;DHT22;24727;51.974;20.868;2023-03-11T00:15:23;6.00;1.00
38938;DHT22;24727;51.974;20.868;2023-03-11T00:17:50;6.00;1.00
38938;DHT22;24727;51.974;20.868;2023-03-11T00:20:28;6.00;1.00
38938;DHT22;24727;51.974;20.868;2023-03-11T00:22:55;6.00;1.70
38938;DHT22;24727;51.974;20.868;2023-03-11T00:25:23;6.00;1.00
38938;DHT22;24727;51.974;20.868;2023-03-11T00:27:51;6.00;1.00
38938;DHT22;24727;51.974;20.868;2023-03-11T00:30:18;6.00;11.70
38938;DHT22;24727;51.974;20.868;2023-03-11T00:32:46;6.00;4.20
38938;DHT22;24727;51.974;20.868;2023-03-11T00:35:16;5.90;5.30
38938;DHT22;24727;51.974;20.868;2023-03-11T00:37:44;5.90;10.30
38938;DHT22;24727;51.974;20.868;2023-03-11T00:40:16;6.00;10.50
38938;DHT22;24727;51.974;20.868;2023-03-11T00:42:42;5.90;23.10
38938;DHT22;24727;51.974;20.868;2023-03-11T00:45:11;5.90;19.00
38938;DHT22;24727;51.974;20.868;2023-03-11T00:47:37;5.90;16.40
38938;DHT22;24727;51.974;20.868;2023-03-11T00:50:03;5.90;20.00
38938;DHT22;24727;51.974;20.868;2023-03-11T00:52:36;5.90;32.70
38938;DHT22;24727;51.974;20.868;2023-03-11T00:55:04;5.90;24.10
38938;DHT22;24727;51.974;20.868;2023-03-11T00:57:31;5.90;12.00
38938;DHT22;24727;51.974;20.868;2023-03-11T00:59:58;5.80;1.00
38938;DHT22;24727;51.974;20.868;2023-03-11T01:02:24;5.70;1.00
38938;DHT22;24727;51.974;20.868;2023-03-11T01:04:54;5.70;3.40
38938;DHT22;24727;51.974;20.868;2023-03-11T01:07:21;5.70;3.90
38938;DHT22;24727;51.974;20.868;2023-03-11T01:09:47;5.60;12.40
38938;DHT22;24727;51.974;20.868;2023-03-11T01:12:13;5.60;30.50
38938;DHT22;24727;51.974;20.868;2023-03-11T01:14:40;5.70;46.60
38938;DHT22;24727;51.974;20.868;2023-03-11T01:17:06;5.70;58.50
38938;DHT22;24727;51.974;20.868;2023-03-11T01:19:32;5.70;61.30
38938;DHT22;24727;51.974;20.868;2023-03-11T01:21:58;5.70;65.80
38938;DHT22;24727;51.974;20.868;2023-03-11T01:24:24;5.70;71.10
38938;DHT22;24727;51.974;20.868;2023-03-11T01:26:50;5.70;73.90
38938;DHT22;24727;51.974;20.868;2023-03-11T01:29:16;5.70;74.80
38938;DHT22;24727;51.974;20.868;2023-03-11T01:31:42;5.60;76.00
38938;DHT22;24727;51.974;20.868;2023-03-11T01:34:08;5.70;78.20
38938;DHT22;24727;51.974;20.868;2023-03-11T01:36:35;5.60;78.80
38938;DHT22;24727;51.974;20.868;2023-03-11T01:39:02;5.70;80.80
38938;DHT22;24727;51.974;20.868;2023-03-11T01:41:28;5.70;81.60
38938;DHT22;24727;51.974;20.868;2023-03-11T01:43:54;5.60;82.20
38938;DHT22;24727;51.974;20.868;2023-03-11T01:49:17;5.70;84.50
38938;DHT22;24727;51.974;20.868;2023-03-11T01:51:46;5.80;85.30
38938;DHT22;24727;51.974;20.868;2023-03-11T01:56:49;5.90;85.70
38938;DHT22;24727;51.974;20.868;2023-03-11T01:59:39;5.90;85.10
38938;DHT22;24727;51.974;20.868;2023-03-11T02:02:16;6.00;83.60
38938;DHT22;24727;51.974;20.868;2023-03-11T02:04:43;5.90;82.20
38938;DHT22;24727;51.974;20.868;2023-03-11T02:07:11;6.00;80.50
38938;DHT22;24727;51.974;20.868;2023-03-11T02:09:38;6.00;78.50
38938;DHT22;24727;51.974;20.868;2023-03-11T02:12:06;6.00;77.00
38938;DHT22;24727;51.974;20.868;2023-03-11T02:14:35;6.00;75.10
38938;DHT22;24727;51.974;20.868;2023-03-11T02:17:01;5.90;73.00
38938;DHT22;24727;51.974;20.868;2023-03-11T02:22:26;5.90;68.70
38938;DHT22;24727;51.974;20.868;2023-03-11T02:27:52;5.80;63.90
38938;DHT22;24727;51.974;20.868;2023-03-11T02:30:21;5.80;63.00
38938;DHT22;24727;51.974;20.868;2023-03-11T02:32:48;5.80;61.20
38938;DHT22;24727;51.974;20.868;2023-03-11T02:35:15;5.70;59.30
38938;DHT22;24727;51.974;20.868;2023-03-11T02:37:50;5.70;58.40
38938;DHT22;24727;51.974;20.868;2023-03-11T02:43:00;5.60;52.80
38938;DHT22;24727;51.974;20.868;2023-03-11T02:45:29;5.50;44.40
38938;DHT22;24727;51.974;20.868;2023-03-11T02:47:57;5.40;39.90
38938;DHT22;24727;51.974;20.868;2023-03-11T02:50:24;5.30;37.80
38938;DHT22;24727;51.974;20.868;2023-03-11T02:52:52;5.20;38.20
38938;DHT22;24727;51.974;20.868;2023-03-11T02:55:20;5.10;40.80
38938;DHT22;24727;51.974;20.868;2023-03-11T02:57:47;5.00;41.00
38938;DHT22;24727;51.974;20.868;2023-03-11T03:00:14;4.90;43.20
38938;DHT22;24727;51.974;20.868;2023-03-11T03:02:44;4.90;41.80
38938;DHT22;24727;51.974;20.868;2023-03-11T03:05:12;4.80;41.20
38938;DHT22;24727;51.974;20.868;2023-03-11T03:07:38;4.70;41.40
38938;DHT22;24727;51.974;20.868;2023-03-11T03:10:06;4.70;43.30
38938;DHT22;24727;51.974;20.868;2023-03-11T03:12:32;4.70;46.70
38938;DHT22;24727;51.974;20.868;2023-03-11T03:14:58;4.70;41.50
38938;DHT22;24727;51.974;20.868;2023-03-11T03:17:24;4.70;33.90
38938;DHT22;24727;51.974;20.868;2023-03-11T03:19:50;4.70;21.00
38938;DHT22;24727;51.974;20.868;2023-03-11T03:22:16;4.60;13.90
38938;DHT22;24727;51.974;20.868;2023-03-11T03:24:42;4.50;16.40
38938;DHT22;24727;51.974;20.868;2023-03-11T03:27:08;4.50;20.70
38938;DHT22;24727;51.974;20.868;2023-03-11T03:29:34;4.50;22.50
38938;DHT22;24727;51.974;20.868;2023-03-11T03:32:00;4.50;26.30
38938;DHT22;24727;51.974;20.868;2023-03-11T03:34:26;4.60;30.10
38938;DHT22;24727;51.974;20.868;2023-03-11T03:37:00;4.60;31.10
38938;DHT22;24727;51.974;20.868;2023-03-11T03:39:26;4.70;30.90
38938;DHT22;24727;51.974;20.868;2023-03-11T03:41:53;4.70;35.70
38938;DHT22;24727;51.974;20.868;2023-03-11T03:44:19;4.70;36.00
38938;DHT22;24727;51.974;20.868;2023-03-11T03:46:45;4.70;37.50
38938;DHT22;24727;51.974;20.868;2023-03-11T03:49:11;4.70;34.30
38938;DHT22;24727;51.974;20.868;2023-03-11T03:51:38;4.70;32.70
38938;DHT22;24727;51.974;20.868;2023-03-11T03:54:04;4.70;38.10
38938;DHT22;24727;51.974;20.868;2023-03-11T03:56:30;4.80;41.20
38938;DHT22;24727;51.974;20.868;2023-03-11T03:58:57;4.80;50.30
38938;DHT22;24727;51.974;20.868;2023-03-11T04:01:23;4.80;59.50
38938;DHT22;24727;51.974;20.868;2023-03-11T04:03:49;5.00;73.90
38938;DHT22;24727;51.974;20.868;2023-03-11T04:06:17;5.20;81.80
38938;DHT22;24727;51.974;20.868;2023-03-11T04:08:50;5.40;84.90
38938;DHT22;24727;51.974;20.868;2023-03-11T04:11:17;5.70;84.70
38938;DHT22;24727;51.974;20.868;2023-03-11T04:13:43;5.90;80.30
38938;DHT22;24727;51.974;20.868;2023-03-11T04:16:18;6.10;72.20
38938;DHT22;24727;51.974;20.868;2023-03-11T04:18:44;6.10;65.00
38938;DHT22;24727;51.974;20.868;2023-03-11T04:21:12;6.20;56.00
38938;DHT22;24727;51.974;20.868;2023-03-11T04:23:44;6.20;48.40
38938;DHT22;24727;51.974;20.868;2023-03-11T04:26:10;6.20;43.00
38938;DHT22;24727;51.974;20.868;2023-03-11T04:28:37;6.20;38.70
38938;DHT22;24727;51.974;20.868;2023-03-11T04:31:03;6.30;33.70
38938;DHT22;24727;51.974;20.868;2023-03-11T04:33:30;6.30;25.10
38938;DHT22;24727;51.974;20.868;2023-03-11T04:35:56;6.30;17.50
38938;DHT22;24727;51.974;20.868;2023-03-11T04:38:22;6.40;10.70
38938;DHT22;24727;51.974;20.868;2023-03-11T04:40:49;6.40;4.90
38938;DHT22;24727;51.974;20.868;2023-03-11T04:43:16;6.40;4.00
38938;DHT22;24727;51.974;20.868;2023-03-11T04:45:42;6.40;3.70
38938;DHT22;24727;51.974;20.868;2023-03-11T04:48:08;6.40;2.30
38938;DHT22;24727;51.974;20.868;2023-03-11T04:50:34;6.40;1.00
38938;DHT22;24727;51.974;20.868;2023-03-11T04:53:00;6.40;1.00
38938;DHT22;24727;51.974;20.868;2023-03-11T04:55:26;6.40;1.00
38938;DHT22;24727;51.974;20.868;2023-03-11T04:57:53;6.40;1.00
38938;DHT22;24727;51.974;20.868;2023-03-11T05:00:21;6.40;1.00
38938;DHT22;24727;51.974;20.868;2023-03-11T05:02:49;6.40;1.00
38938;DHT22;24727;51.974;20.868;2023-03-11T05:05:15;6.40;1.00
38938;DHT22;24727;51.974;20.868;2023-03-11T05:07:43;6.40;1.00
38938;DHT22;24727;51.974;20.868;2023-03-11T05:10:10;6.40;1.00
38938;DHT22;24727;51.974;20.868;2023-03-11T05:12:36;6.40;1.00
38938;DHT22;24727;51.974;20.868;2023-03-11T05:15:02;6.40;1.00
38938;DHT22;24727;51.974;20.868;2023-03-11T05:17:28;6.40;1.00
38938;DHT22;24727;51.974;20.868;2023-03-11T05:19:55;6.40;1.00
38938;DHT22;24727;51.974;20.868;2023-03-11T05:22:23;6.40;1.00
38938;DHT22;24727;51.974;20.868;2023-03-11T05:24:49;6.40;3.40
38938;DHT22;24727;51.974;20.868;2023-03-11T05:27:16;6.40;6.10
38938;DHT22;24727;51.974;20.868;2023-03-11T05:29:43;6.40;10.30
38938;DHT22;24727;51.974;20.868;2023-03-11T05:32:11;6.40;10.90
38938;DHT22;24727;51.974;20.868;2023-03-11T05:34:37;6.40;18.30
38938;DHT22;24727;51.974;20.868;2023-03-11T05:37:04;6.40;26.30
38938;DHT22;24727;51.974;20.868;2023-03-11T05:39:31;6.40;35.30
38938;DHT22;24727;51.974;20.868;2023-03-11T05:42:06;6.40;45.90
38938;DHT22;24727;51.974;20.868;2023-03-11T05:44:34;6.30;56.30
38938;DHT22;24727;51.974;20.868;2023-03-11T05:47:00;6.30;64.10
38938;DHT22;24727;51.974;20.868;2023-03-11T05:49:26;6.30;73.30
38938;DHT22;24727;51.974;20.868;2023-03-11T05:51:54;6.20;79.30
38938;DHT22;24727;51.974;20.868;2023-03-11T05:54:20;6.30;84.10
38938;DHT22;24727;51.974;20.868;2023-03-11T05:56:46;6.30;86.40
38938;DHT22;24727;51.974;20.868;2023-03-11T05:59:13;6.30;87.80
38938;DHT22;24727;51.974;20.868;2023-03-11T06:01:42;6.30;89.10
38938;DHT22;24727;51.974;20.868;2023-03-11T06:04:08;6.30;90.20
38938;DHT22;24727;51.974;20.868;2023-03-11T06:06:34;6.30;91.00
38938;DHT22;24727;51.974;20.868;2023-03-11T06:09:01;6.40;92.10
38938;DHT22;24727;51.974;20.868;2023-03-11T06:11:29;6.40;91.70
38938;DHT22;24727;51.974;20.868;2023-03-11T06:13:56;6.40;92.20
38938;DHT22;24727;51.974;20.868;2023-03-11T06:16:25;6.40;92.70
38938;DHT22;24727;51.974;20.868;2023-03-11T06:18:51;6.40;93.10
38938;DHT22;24727;51.974;20.868;2023-03-11T06:21:19;6.40;93.40
38938;DHT22;24727;51.974;20.868;2023-03-11T06:23:48;6.40;93.90
38938;DHT22;24727;51.974;20.868;2023-03-11T06:26:17;6.50;95.00
38938;DHT22;24727;51.974;20.868;2023-03-11T06:28:45;6.40;94.40
38938;DHT22;24727;51.974;20.868;2023-03-11T06:31:16;6.40;94.40
38938;DHT22;24727;51.974;20.868;2023-03-11T06:33:42;6.40;94.60
38938;DHT22;24727;51.974;20.868;2023-03-11T06:36:11;6.40;95.10
38938;DHT22;24727;51.974;20.868;2023-03-11T06:38:37;6.40;95.30
38938;DHT22;24727;51.974;20.868;2023-03-11T06:41:05;6.40;95.10
38938;DHT22;24727;51.974;20.868;2023-03-11T06:43:33;6.30;96.00
38938;DHT22;24727;51.974;20.868;2023-03-11T06:46:00;6.30;96.40
38938;DHT22;24727;51.974;20.868;2023-03-11T06:48:27;6.30;96.70
38938;DHT22;24727;51.974;20.868;2023-03-11T06:51:00;6.30;97.40
38938;DHT22;24727;51.974;20.868;2023-03-11T06:53:27;6.30;97.90
38938;DHT22;24727;51.974;20.868;2023-03-11T06:56:05;6.30;98.30
38938;DHT22;24727;51.974;20.868;2023-03-11T06:58:33;6.20;98.70
38938;DHT22;24727;51.974;20.868;2023-03-11T07:01:01;6.30;98.00
38938;DHT22;24727;51.974;20.868;2023-03-11T07:03:27;6.30;99.50
38938;DHT22;24727;51.974;20.868;2023-03-11T07:05:55;6.20;99.60
38938;DHT22;24727;51.974;20.868;2023-03-11T07:08:21;6.20;99.80
38938;DHT22;24727;51.974;20.868;2023-03-11T07:11:02;6.10;99.90
38938;DHT22;24727;51.974;20.868;2023-03-11T07:13:29;6.10;99.90
38938;DHT22;24727;51.974;20.868;2023-03-11T07:16:06;6.10;99.90
38938;DHT22;24727;51.974;20.868;2023-03-11T07:18:34;6.10;99.90
38938;DHT22;24727;51.974;20.868;2023-03-11T07:21:05;6.20;99.90
38938;DHT22;24727;51.974;20.868;2023-03-11T07:23:32;6.10;99.90
38938;DHT22;24727;51.974;20.868;2023-03-11T07:26:00;6.10;99.90
38938;DHT22;24727;51.974;20.868;2023-03-11T07:28:28;6.10;99.90
38938;DHT22;24727;51.974;20.868;2023-03-11T07:30:54;6.10;99.90
38938;DHT22;24727;51.974;20.868;2023-03-11T07:33:22;6.10;99.90
38938;DHT22;24727;51.974;20.868;2023-03-11T07:35:51;6.10;99.90
38938;DHT22;24727;51.974;20.868;2023-03-11T07:38:18;6.10;99.90
38938;DHT22;24727;51.974;20.868;2023-03-11T07:40:46;6.10;99.90
38938;DHT22;24727;51.974;20.868;2023-03-11T07:43:12;6.10;99.90
38938;DHT22;24727;51.974;20.868;2023-03-11T07:45:38;6.00;99.90
38938;DHT22;24727;51.974;20.868;2023-03-11T07:48:04;6.00;99.90
38938;DHT22;24727;51.974;20.868;2023-03-11T07:50:30;6.00;99.90
38938;DHT22;24727;51.974;20.868;2023-03-11T07:52:57;6.00;99.90
38938;DHT22;24727;51.974;20.868;2023-03-11T07:55:23;6.00;99.90
38938;DHT22;24727;51.974;20.868;2023-03-11T07:57:49;6.00;99.90
38938;DHT22;24727;51.974;20.868;2023-03-11T08:00:16;6.00;99.90
38938;DHT22;24727;51.974;20.868;2023-03-11T08:02:42;6.00;99.90
38938;DHT22;24727;51.974;20.868;2023-03-11T08:05:10;6.00;99.90
38938;DHT22;24727;51.974;20.868;2023-03-11T08:07:42;6.00;99.90
38938;DHT22;24727;51.974;20.868;2023-03-11T08:10:09;6.00;99.90
38938;DHT22;24727;51.974;20.868;2023-03-11T08:12:35;5.90;99.90
38938;DHT22;24727;51.974;20.868;2023-03-11T08:15:01;5.90;99.90
38938;DHT22;24727;51.974;20.868;2023-03-11T08:17:27;5.90;99.90
38938;DHT22;24727;51.974;20.868;2023-03-11T08:19:54;5.90;99.90
38938;DHT22;24727;51.974;20.868;2023-03-11T08:22:20;5.90;99.90
38938;DHT22;24727;51.974;20.868;2023-03-11T08:24:50;5.90;99.90
38938;DHT22;24727;51.974;20.868;2023-03-11T08:27:16;5.90;99.90
38938;DHT22;24727;51.974;20.868;2023-03-11T08:29:42;5.90;99.90
38938;DHT22;24727;51.974;20.868;2023-03-11T08:32:08;5.90;99.90
38938;DHT22;24727;51.974;20.868;2023-03-11T08:34:34;5.90;99.90
38938;DHT22;24727;51.974;20.868;2023-03-11T08:37:00;5.90;99.90
38938;DHT22;24727;51.974;20.868;2023-03-11T08:39:27;5.90;99.90
38938;DHT22;24727;51.974;20.868;2023-03-11T08:41:53;5.90;99.90
38938;DHT22;24727;51.974;20.868;2023-03-11T08:44:19;5.80;99.90
38938;DHT22;24727;51.974;20.868;2023-03-11T08:46:46;5.80;99.90
38938;DHT22;24727;51.974;20.868;2023-03-11T08:49:12;5.90;99.90
38938;DHT22;24727;51.974;20.868;2023-03-11T08:51:39;5.80;99.90
38938;DHT22;24727;51.974;20.868;2023-03-11T08:54:05;5.90;99.90
38938;DHT22;24727;51.974;20.868;2023-03-11T08:56:33;5.80;99.90
38938;DHT22;24727;51.974;20.868;2023-03-11T08:59:01;5.80;99.70
38938;DHT22;24727;51.974;20.868;2023-03-11T09:01:27;5.80;99.80
38938;DHT22;24727;51.974;20.868;2023-03-11T09:03:54;5.80;99.90
38938;DHT22;24727;51.974;20.868;2023-03-11T09:06:20;5.80;99.90
38938;DHT22;24727;51.974;20.868;2023-03-11T09:08:48;5.80;99.90
38938;DHT22;24727;51.974;20.868;2023-03-11T09:11:16;5.80;99.90
38938;DHT22;24727;51.974;20.868;2023-03-11T09:13:43;5.80;99.90
38938;DHT22;24727;51.974;20.868;2023-03-11T09:16:18;5.70;99.90
38938;DHT22;24727;51.974;20.868;2023-03-11T09:18:45;5.70;99.90
38938;DHT22;24727;51.974;20.868;2023-03-11T09:21:11;5.70;99.90
38938;DHT22;24727;51.974;20.868;2023-03-11T09:23:38;5.70;99.90
38938;DHT22;24727;51.974;20.868;2023-03-11T09:26:05;5.70;99.90
38938;DHT22;24727;51.974;20.868;2023-03-11T09:28:31;5.60;99.90
38938;DHT22;24727;51.974;20.868;2023-03-11T09:31:05;5.60;99.90
38938;DHT22;24727;51.974;20.868;2023-03-11T09:33:34;5.60;99.90
38938;DHT22;24727;51.974;20.868;2023-03-11T09:36:00;5.50;99.90
38938;DHT22;24727;51.974;20.868;2023-03-11T09:38:26;5.50;99.90
38938;DHT22;24727;51.974;20.868;2023-03-11T09:41:05;5.60;99.90
38938;DHT22;24727;51.974;20.868;2023-03-11T09:52:10;5.40;97.90
38938;DHT22;24727;51.974;20.868;2023-03-11T09:54:40;5.40;98.00
38938;DHT22;24727;51.974;20.868;2023-03-11T09:57:17;5.30;96.70
38938;DHT22;24727;51.974;20.868;2023-03-11T09:59:44;5.20;95.00
38938;DHT22;24727;51.974;20.868;2023-03-11T10:02:15;5.20;95.70
38938;DHT22;24727;51.974;20.868;2023-03-11T10:05:12;5.10;96.30
38938;DHT22;24727;51.974;20.868;2023-03-11T10:07:38;4.90;96.60
38938;DHT22;24727;51.974;20.868;2023-03-11T10:10:06;4.80;97.10
38938;DHT22;24727;51.974;20.868;2023-03-11T10:13:37;4.40;96.30
38938;DHT22;24727;51.974;20.868;2023-03-11T10:16:03;4.00;95.80
38938;DHT22;24727;51.974;20.868;2023-03-11T10:18:59;3.80;96.70
38938;DHT22;24727;51.974;20.868;2023-03-11T10:26:50;3.10;95.30
38938;DHT22;24727;51.974;20.868;2023-03-11T10:29:47;3.00;95.50
38938;DHT22;24727;51.974;20.868;2023-03-11T10:32:26;2.80;95.10
38938;DHT22;24727;51.974;20.868;2023-03-11T10:35:19;2.70;96.00
38938;DHT22;24727;51.974;20.868;2023-03-11T10:38:11;2.70;97.00
38938;DHT22;24727;51.974;20.868;2023-03-11T10:40:44;2.70;97.60
38938;DHT22;24727;51.974;20.868;2023-03-11T10:43:34;2.50;97.30
38938;DHT22;24727;51.974;20.868;2023-03-11T10:46:06;2.30;95.00
38938;DHT22;24727;51.974;20.868;2023-03-11T10:48:35;2.30;95.30
38938;DHT22;24727;51.974;20.868;2023-03-11T10:51:23;2.20;95.40
38938;DHT22;24727;51.974;20.868;2023-03-11T10:53:55;2.10;94.90
38938;DHT22;24727;51.974;20.868;2023-03-11T10:56:36;2.00;94.40
38938;DHT22;24727;51.974;20.868;2023-03-11T10:59:05;2.00;95.30
38938;DHT22;24727;51.974;20.868;2023-03-11T11:01:31;1.80;94.00
38938;DHT22;24727;51.974;20.868;2023-03-11T11:03:59;1.80;95.40
38938;DHT22;24727;51.974;20.868;2023-03-11T11:09:26;1.70;95.80
38938;DHT22;24727;51.974;20.868;2023-03-11T11:12:15;1.60;95.50
38938;DHT22;24727;51.974;20.868;2023-03-11T11:14:50;1.60;95.40
38938;DHT22;24727;51.974;20.868;2023-03-11T11:17:30;1.60;96.20
38938;DHT22;24727;51.974;20.868;2023-03-11T11:20:00;1.50;96.00
38938;DHT22;24727;51.974;20.868;2023-03-11T11:22:38;1.40;95.40
38938;DHT22;24727;51.974;20.868;2023-03-11T11:25:36;1.40;95.60
38938;DHT22;24727;51.974;20.868;2023-03-11T11:28:15;1.30;95.50
38938;DHT22;24727;51.974;20.868;2023-03-11T11:33:30;1.30;94.30
38938;DHT22;24727;51.974;20.868;2023-03-11T11:36:00;1.30;94.80
38938;DHT22;24727;51.974;20.868;2023-03-11T11:38:28;1.30;93.90
38938;DHT22;24727;51.974;20.868;2023-03-11T11:40:58;1.30;94.10
38938;DHT22;24727;51.974;20.868;2023-03-11T11:43:48;1.30;93.60
38938;DHT22;24727;51.974;20.868;2023-03-11T11:46:21;1.30;92.10
38938;DHT22;24727;51.974;20.868;2023-03-11T11:49:06;1.30;92.50
38938;DHT22;24727;51.974;20.868;2023-03-11T11:55:00;1.20;92.00
38938;DHT22;24727;51.974;20.868;2023-03-11T11:57:27;1.20;93.60
38938;DHT22;24727;51.974;20.868;2023-03-11T11:59:54;1.00;93.70
38938;DHT22;24727;51.974;20.868;2023-03-11T12:02:40;1.00;93.70
38938;DHT22;24727;51.974;20.868;2023-03-11T12:05:42;1.00;94.00
38938;DHT22;24727;51.974;20.868;2023-03-11T12:08:52;1.00;93.20
38938;DHT22;24727;51.974;20.868;2023-03-11T12:11:25;0.90;92.20
38938;DHT22;24727;51.974;20.868;2023-03-11T12:14:14;0.90;92.60
38938;DHT22;24727;51.974;20.868;2023-03-11T12:17:02;1.00;93.50
38938;DHT22;24727;51.974;20.868;2023-03-11T12:19:48;0.90;94.20
38938;DHT22;24727;51.974;20.868;2023-03-11T12:25:27;0.70;93.10
38938;DHT22;24727;51.974;20.868;2023-03-11T12:30:54;0.70;92.40
38938;DHT22;24727;51.974;20.868;2023-03-11T12:36:03;0.60;91.10
38938;DHT22;24727;51.974;20.868;2023-03-11T12:41:02;0.50;90.30
38938;DHT22;24727;51.974;20.868;2023-03-11T12:48:43;0.60;91.10
38938;DHT22;24727;51.974;20.868;2023-03-11T12:53:54;0.40;92.30
38938;DHT22;24727;51.974;20.868;2023-03-11T12:56:41;0.40;91.90
38938;DHT22;24727;51.974;20.868;2023-03-11T12:59:59;0.40;92.90
38938;DHT22;24727;51.974;20.868;2023-03-11T13:08:59;0.30;91.80
38938;DHT22;24727;51.974;20.868;2023-03-11T13:17:22;0.20;91.00
38938;DHT22;24727;51.974;20.868;2023-03-11T13:19:52;0.20;89.00
38938;DHT22;24727;51.974;20.868;2023-03-11T13:37:09;0.20;90.40
38938;DHT22;24727;51.974;20.868;2023-03-11T13:39:59;0.20;90.90
38938;DHT22;24727;51.974;20.868;2023-03-11T13:42:50;0.20;88.50
38938;DHT22;24727;51.974;20.868;2023-03-11T13:48:32;0.20;90.20
38938;DHT22;24727;51.974;20.868;2023-03-11T13:51:07;0.20;88.70
38938;DHT22;24727;51.974;20.868;2023-03-11T13:53:43;0.20;87.30
38938;DHT22;24727;51.974;20.868;2023-03-11T13:56:24;0.30;86.50
38938;DHT22;24727;51.974;20.868;2023-03-11T13:58:51;0.20;85.40
38938;DHT22;24727;51.974;20.868;2023-03-11T14:01:18;0.20;86.70
38938;DHT22;24727;51.974;20.868;2023-03-11T14:03:45;0.10;87.40
38938;DHT22;24727;51.974;20.868;2023-03-11T14:06:19;0.10;89.50
38938;DHT22;24727;51.974;20.868;2023-03-11T14:08:56;0.00;91.90
38938;DHT22;24727;51.974;20.868;2023-03-11T14:11:31;0.00;88.70
38938;DHT22;24727;51.974;20.868;2023-03-11T14:13:58;0.00;89.20
38938;DHT22;24727;51.974;20.868;2023-03-11T14:16:33;0.10;84.50
38938;DHT22;24727;51.974;20.868;2023-03-11T14:19:27;0.10;81.90
38938;DHT22;24727;51.974;20.868;2023-03-11T14:21:56;0.20;77.20
38938;DHT22;24727;51.974;20.868;2023-03-11T14:24:29;0.20;73.30
38938;DHT22;24727;51.974;20.868;2023-03-11T14:26:59;0.30;70.80
38938;DHT22;24727;51.974;20.868;2023-03-11T14:31:52;0.30;67.90
38938;DHT22;24727;51.974;20.868;2023-03-11T14:34:23;0.30;65.40
38938;DHT22;24727;51.974;20.868;2023-03-11T14:36:58;0.30;65.30
38938;DHT22;24727;51.974;20.868;2023-03-11T14:39:33;0.30;68.20
38938;DHT22;24727;51.974;20.868;2023-03-11T14:42:08;0.30;59.60
38938;DHT22;24727;51.974;20.868;2023-03-11T14:44:40;0.30;58.90
38938;DHT22;24727;51.974;20.868;2023-03-11T14:49:35;0.40;57.00
38938;DHT22;24727;51.974;20.868;2023-03-11T14:52:12;0.40;60.00
38938;DHT22;24727;51.974;20.868;2023-03-11T14:54:40;0.40;58.90
38938;DHT22;24727;51.974;20.868;2023-03-11T14:57:22;0.40;55.30
38938;DHT22;24727;51.974;20.868;2023-03-11T14:59:49;0.40;55.00
38938;DHT22;24727;51.974;20.868;2023-03-11T15:04:56;0.50;47.80
38938;DHT22;24727;51.974;20.868;2023-03-11T15:07:23;0.50;43.30
38938;DHT22;24727;51.974;20.868;2023-03-11T15:09:49;0.40;3.80
38938;DHT22;24727;51.974;20.868;2023-03-11T15:12:36;0.50;1.00
38938;DHT22;24727;51.974;20.868;2023-03-11T15:15:24;0.50;1.00
38938;DHT22;24727;51.974;20.868;2023-03-11T15:17:55;0.50;1.00
38938;DHT22;24727;51.974;20.868;2023-03-11T15:20:32;0.50;1.00
38938;DHT22;24727;51.974;20.868;2023-03-11T15:23:05;0.50;1.00
38938;DHT22;24727;51.974;20.868;2023-03-11T15:25:35;0.50;1.00
38938;DHT22;24727;51.974;20.868;2023-03-11T15:30:47;0.50;1.00
38938;DHT22;24727;51.974;20.868;2023-03-11T15:33:22;0.60;1.00
38938;DHT22;24727;51.974;20.868;2023-03-11T15:35:52;0.50;1.00
38938;DHT22;24727;51.974;20.868;2023-03-11T15:38:24;0.50;1.00
38938;DHT22;24727;51.974;20.868;2023-03-11T15:41:00;0.50;1.00
38938;DHT22;24727;51.974;20.868;2023-03-11T15:43:31;0.50;1.00
38938;DHT22;24727;51.974;20.868;2023-03-11T15:46:01;0.50;1.00
38938;DHT22;24727;51.974;20.868;2023-03-11T15:48:28;0.50;1.00
38938;DHT22;24727;51.974;20.868;2023-03-11T15:50:58;0.40;1.00
38938;DHT22;24727;51.974;20.868;2023-03-11T15:53:26;0.40;1.00
38938;DHT22;24727;51.974;20.868;2023-03-11T15:55:54;0.30;1.00
38938;DHT22;24727;51.974;20.868;2023-03-11T15:58:23;0.30;1.00
38938;DHT22;24727;51.974;20.868;2023-03-11T16:00:52;0.30;1.00
38938;DHT22;24727;51.974;20.868;2023-03-11T16:03:18;0.30;1.00
38938;DHT22;24727;51.974;20.868;2023-03-11T16:05:45;0.20;1.00
38938;DHT22;24727;51.974;20.868;2023-03-11T16:08:12;0.30;1.00
38938;DHT22;24727;51.974;20.868;2023-03-11T16:10:39;0.30;1.00
38938;DHT22;24727;51.974;20.868;2023-03-11T16:13:05;0.20;1.00
38938;DHT22;24727;51.974;20.868;2023-03-11T16:15:35;0.30;1.00
38938;DHT22;24727;51.974;20.868;2023-03-11T16:18:05;0.30;1.00
38938;DHT22;24727;51.974;20.868;2023-03-11T16:20:44;0.40;1.00
38938;DHT22;24727;51.974;20.868;2023-03-11T16:23:25;0.40;1.00
38938;DHT22;24727;51.974;20.868;2023-03-11T16:26:00;0.40;1.00
38938;DHT22;24727;51.974;20.868;2023-03-11T16:28:28;0.40;1.00
38938;DHT22;24727;51.974;20.868;2023-03-11T16:30:55;0.40;1.00
38938;DHT22;24727;51.974;20.868;2023-03-11T16:33:23;0.40;1.00
38938;DHT22;24727;51.974;20.868;2023-03-11T16:35:50;0.40;1.00
38938;DHT22;24727;51.974;20.868;2023-03-11T16:38:17;0.20;1.00
38938;DHT22;24727;51.974;20.868;2023-03-11T16:40:44;0.00;1.00
38938;DHT22;24727;51.974;20.868;2023-03-11T16:43:12;-0.10;1.00
38938;DHT22;24727;51.974;20.868;2023-03-11T16:45:40;-0.30;1.00
38938;DHT22;24727;51.974;20.868;2023-03-11T16:48:07;-0.30;1.00
38938;DHT22;24727;51.974;20.868;2023-03-11T16:50:33;-0.30;1.00
38938;DHT22;24727;51.974;20.868;2023-03-11T16:52:59;-0.30;1.00
38938;DHT22;24727;51.974;20.868;2023-03-11T16:55:27;-0.30;1.00
38938;DHT22;24727;51.974;20.868;2023-03-11T16:57:55;-0.30;1.00
38938;DHT22;24727;51.974;20.868;2023-03-11T17:00:22;-0.20;1.00
38938;DHT22;24727;51.974;20.868;2023-03-11T17:02:50;-0.20;1.00
38938;DHT22;24727;51.974;20.868;2023-03-11T17:05:17;-0.20;1.00
38938;DHT22;24727;51.974;20.868;2023-03-11T17:07:44;-0.20;1.00
38938;DHT22;24727;51.974;20.868;2023-03-11T17:10:12;-0.10;1.00
38938;DHT22;24727;51.974;20.868;2023-03-11T17:12:39;-0.10;1.00
38938;DHT22;24727;51.974;20.868;2023-03-11T17:15:08;-0.10;1.00
38938;DHT22;24727;51.974;20.868;2023-03-11T17:17:35;-0.10;1.00
38938;DHT22;24727;51.974;20.868;2023-03-11T17:20:01;-0.10;1.00
38938;DHT22;24727;51.974;20.868;2023-03-11T17:22:28;-0.10;1.00
38938;DHT22;24727;51.974;20.868;2023-03-11T17:24:57;-0.10;1.00
38938;DHT22;24727;51.974;20.868;2023-03-11T17:27:30;-0.10;1.00